Time;durP1;ratioP1;P1;durP2;ratioP2;P2;SDS_P1;SDS_P2;PMS_P1;PMS_P2;Temp;Humidity;BMP_temperature;BMP_pressure;BME280_temperature;BME280_humidity;BME280_pressure;Samples;Min_cycle;Max_cycle;Signal;HPM_P1;HPM_P2
2022/08/19 00:00:00;;;;;;;13.55;8.80;;;;;;;;;;5088889;28;20674;-66
2022/08/19 00:02:26;;;;;;;10.45;8.23;;;;;;;;;;5072424;28;20039;-66
2022/08/19 00:04:52;;;;;;;15.77;8.75;;;;;;;;;;5090333;28;20044;-66
2022/08/19 00:07:19;;;;;;;13.73;8.50;;;;;;;;;;5081197;28;20039;-66
2022/08/19 00:09:45;;;;;;;18.63;8.55;;;;;;;;;;5087524;28;20068;-66
2022/08/19 00:12:12;;;;;;;13.20;8.88;;;;;;;;;;5081200;28;20074;-66
2022/08/19 00:14:38;;;;;;;11.13;8.02;;;;;;;;;;5092549;28;20059;-66
2022/08/19 00:17:06;;;;;;;10.57;6.93;;;;;;;;;;5094117;28;21865;-66
2022/08/19 00:19:32;;;;;;;11.05;7.45;;;;;;;;;;5094440;28;20093;-66
2022/08/19 00:21:58;;;;;;;14.57;8.65;;;;;;;;;;5079808;28;20048;-66
2022/08/19 00:24:25;;;;;;;13.23;7.90;;;;;;;;;;5069413;28;20052;-66
2022/08/19 00:26:51;;;;;;;11.40;8.00;;;;;;;;;;5072593;28;20059;-66
2022/08/19 00:29:19;;;;;;;11.00;8.07;;;;;;;;;;5081941;28;21810;-66
2022/08/19 00:31:46;;;;;;;12.70;8.10;;;;;;;;;;5079754;28;20102;-66
2022/08/19 00:34:12;;;;;;;12.68;7.45;;;;;;;;;;5082677;28;20166;-66
2022/08/19 00:36:39;;;;;;;10.90;8.18;;;;;;;;;;5077800;28;20482;-66
2022/08/19 00:39:05;;;;;;;10.93;7.78;;;;;;;;;;5061486;28;20051;-66
2022/08/19 00:41:32;;;;;;;9.80;7.32;;;;;;;;;;5078887;28;20482;-66
2022/08/19 00:43:59;;;;;;;13.52;8.98;;;;;;;;;;5085974;28;20078;-66
2022/08/19 00:46:25;;;;;;;12.32;8.75;;;;;;;;;;5081074;28;20036;-66
2022/08/19 00:48:51;;;;;;;11.57;9.20;;;;;;;;;;5080355;28;20033;-66
2022/08/19 00:51:18;;;;;;;12.82;8.85;;;;;;;;;;5082596;28;20119;-66
2022/08/19 00:53:44;;;;;;;14.93;9.95;;;;;;;;;;5083206;28;20445;-66
2022/08/19 00:56:10;;;;;;;13.38;9.82;;;;;;;;;;5084308;28;20048;-66
2022/08/19 00:58:37;;;;;;;14.43;9.43;;;;;;;;;;5081723;28;20047;-66
2022/08/19 01:01:04;;;;;;;15.70;9.90;;;;;;;;;;5091044;28;20114;-66
2022/08/19 01:03:31;;;;;;;15.13;9.77;;;;;;;;;;5084537;28;20178;-66
2022/08/19 01:05:57;;;;;;;12.55;8.68;;;;;;;;;;5077224;28;20036;-66
2022/08/19 01:08:23;;;;;;;9.50;6.32;;;;;;;;;;5084917;28;20066;-66
2022/08/19 01:10:52;;;;;;;12.20;9.07;;;;;;;;;;5080559;28;20146;-66
2022/08/19 01:13:21;;;;;;;11.23;8.27;;;;;;;;;;5087140;28;20191;-67
2022/08/19 01:15:51;;;;;;;12.35;9.20;;;;;;;;;;5087867;28;20079;-66
2022/08/19 01:18:18;;;;;;;13.05;9.02;;;;;;;;;;5080626;28;20055;-66
2022/08/19 01:20:45;;;;;;;12.55;9.40;;;;;;;;;;5083537;28;20058;-66
2022/08/19 01:23:12;;;;;;;12.35;8.60;;;;;;;;;;5080905;28;20048;-66
2022/08/19 01:25:42;;;;;;;13.60;8.65;;;;;;;;;;5083661;28;21083;-66
2022/08/19 01:28:08;;;;;;;12.63;8.43;;;;;;;;;;5073186;28;20390;-66
2022/08/19 01:30:36;;;;;;;13.85;8.35;;;;;;;;;;5084255;28;20051;-66
2022/08/19 01:33:04;;;;;;;16.42;9.55;;;;;;;;;;5088192;28;20491;-66
2022/08/19 01:35:31;;;;;;;12.57;9.00;;;;;;;;;;5090915;27;20048;-66
2022/08/19 01:37:59;;;;;;;11.68;8.95;;;;;;;;;;5077240;28;20071;-66
2022/08/19 01:40:27;;;;;;;12.45;9.40;;;;;;;;;;5077351;28;20101;-66
2022/08/19 01:42:53;;;;;;;11.45;9.10;;;;;;;;;;5082296;28;20039;-66
2022/08/19 01:45:21;;;;;;;18.88;9.70;;;;;;;;;;5083559;28;20055;-67
2022/08/19 01:47:48;;;;;;;13.45;8.45;;;;;;;;;;5082423;28;20048;-66
2022/08/19 01:50:14;;;;;;;10.98;7.53;;;;;;;;;;5087085;28;20166;-66
2022/08/19 01:52:41;;;;;;;8.82;6.75;;;;;;;;;;5080468;28;20452;-66
2022/08/19 01:55:08;;;;;;;9.98;7.82;;;;;;;;;;5077089;28;20039;-66
2022/08/19 01:57:35;;;;;;;12.35;7.85;;;;;;;;;;5080964;28;20055;-66
2022/08/19 02:00:04;;;;;;;13.50;8.07;;;;;;;;;;5078393;28;20040;-66
2022/08/19 02:02:30;;;;;;;12.05;8.27;;;;;;;;;;5080119;28;20512;-66
2022/08/19 02:04:56;;;;;;;13.18;8.65;;;;;;;;;;5072809;28;20510;-66
2022/08/19 02:07:22;;;;;;;13.55;8.45;;;;;;;;;;5086004;28;20396;-66
2022/08/19 02:09:49;;;;;;;12.02;8.73;;;;;;;;;;5086931;28;20048;-67
2022/08/19 02:12:16;;;;;;;11.88;7.57;;;;;;;;;;5084734;28;20179;-66
2022/08/19 02:14:42;;;;;;;9.10;6.57;;;;;;;;;;5084277;28;20054;-66
2022/08/19 02:17:08;;;;;;;7.80;5.70;;;;;;;;;;5084347;28;20096;-66
2022/08/19 02:19:35;;;;;;;7.00;5.07;;;;;;;;;;5085539;28;20060;-66
2022/08/19 02:22:01;;;;;;;5.95;4.38;;;;;;;;;;5086529;28;21023;-67
2022/08/19 02:24:27;;;;;;;7.15;5.00;;;;;;;;;;5088755;28;20419;-66
2022/08/19 02:26:53;;;;;;;10.98;4.13;;;;;;;;;;5080136;28;20046;-66
2022/08/19 02:29:20;;;;;;;5.97;3.88;;;;;;;;;;5080696;28;20130;-66
2022/08/19 02:31:46;;;;;;;6.72;4.20;;;;;;;;;;5088005;28;20096;-66
2022/08/19 02:34:12;;;;;;;6.32;4.70;;;;;;;;;;5086555;28;20044;-66
2022/08/19 02:36:39;;;;;;;7.07;4.10;;;;;;;;;;5077590;28;20036;-66
2022/08/19 02:39:05;;;;;;;7.28;3.50;;;;;;;;;;5078210;28;20074;-66
2022/08/19 02:41:32;;;;;;;4.45;3.00;;;;;;;;;;5087493;28;20071;-66
2022/08/19 02:44:00;;;;;;;6.63;4.20;;;;;;;;;;5089251;28;20036;-66
2022/08/19 02:46:28;;;;;;;8.98;4.95;;;;;;;;;;5100065;27;20055;-66
2022/08/19 02:48:56;;;;;;;6.25;3.95;;;;;;;;;;5086699;28;20044;-66
2022/08/19 02:51:24;;;;;;;12.30;3.92;;;;;;;;;;5078943;28;20454;-66
2022/08/19 02:53:51;;;;;;;4.15;2.35;;;;;;;;;;5073842;28;20036;-66
2022/08/19 02:56:17;;;;;;;6.93;3.17;;;;;;;;;;5079639;28;20884;-66
2022/08/19 02:58:43;;;;;;;7.32;3.58;;;;;;;;;;5075693;28;20036;-66
2022/08/19 03:01:10;;;;;;;8.52;5.50;;;;;;;;;;5074171;28;20074;-66
2022/08/19 03:03:37;;;;;;;12.95;7.80;;;;;;;;;;5077489;28;20044;-66
2022/08/19 03:06:05;;;;;;;12.63;8.00;;;;;;;;;;5079981;28;20137;-66
2022/08/19 03:08:32;;;;;;;11.75;8.18;;;;;;;;;;5081376;28;20164;-66
2022/08/19 03:10:58;;;;;;;16.67;10.52;;;;;;;;;;5083241;28;20083;-66
2022/08/19 03:13:25;;;;;;;16.25;10.88;;;;;;;;;;5085020;28;20123;-66
2022/08/19 03:15:51;;;;;;;13.95;9.70;;;;;;;;;;5084213;28;20071;-66
2022/08/19 03:18:18;;;;;;;15.77;11.10;;;;;;;;;;5080841;28;20043;-66
2022/08/19 03:20:45;;;;;;;16.02;12.10;;;;;;;;;;5084113;28;20144;-66
2022/08/19 03:23:12;;;;;;;16.08;11.68;;;;;;;;;;5091536;28;20071;-66
2022/08/19 03:25:41;;;;;;;15.85;10.38;;;;;;;;;;5076223;28;20148;-66
2022/08/19 03:28:07;;;;;;;14.23;9.90;;;;;;;;;;5090744;28;20047;-66
2022/08/19 03:30:33;;;;;;;12.43;9.75;;;;;;;;;;5084224;28;20036;-66
2022/08/19 03:33:00;;;;;;;13.98;9.60;;;;;;;;;;5086297;28;20165;-66
2022/08/19 03:35:26;;;;;;;15.23;11.30;;;;;;;;;;5086699;28;20158;-66
2022/08/19 03:37:52;;;;;;;15.43;11.65;;;;;;;;;;5083961;28;20040;-66
2022/08/19 03:40:18;;;;;;;19.73;12.18;;;;;;;;;;5082261;28;21792;-66
2022/08/19 03:42:45;;;;;;;15.10;11.57;;;;;;;;;;5083942;28;20135;-66
2022/08/19 03:45:12;;;;;;;16.58;11.23;;;;;;;;;;5093333;28;20047;-66
2022/08/19 03:47:38;;;;;;;17.00;11.00;;;;;;;;;;5073098;28;20066;-66
2022/08/19 03:50:05;;;;;;;14.18;10.88;;;;;;;;;;5077938;28;20589;-66
2022/08/19 03:52:31;;;;;;;14.18;10.52;;;;;;;;;;5071860;28;20528;-66
2022/08/19 03:54:57;;;;;;;16.45;11.13;;;;;;;;;;5090485;28;20128;-66
2022/08/19 03:57:23;;;;;;;15.27;10.73;;;;;;;;;;5082026;28;20047;-66
2022/08/19 03:59:49;;;;;;;14.52;10.85;;;;;;;;;;5080939;28;20078;-66
2022/08/19 04:02:15;;;;;;;14.43;10.30;;;;;;;;;;5077515;28;20540;-66
2022/08/19 04:04:43;;;;;;;13.68;10.00;;;;;;;;;;5077714;28;20433;-66
2022/08/19 04:07:10;;;;;;;15.82;10.25;;;;;;;;;;5082797;28;20047;-66
2022/08/19 04:09:37;;;;;;;15.63;11.00;;;;;;;;;;5076111;28;20636;-66
2022/08/19 04:12:05;;;;;;;14.90;10.10;;;;;;;;;;5075484;28;20113;-66
2022/08/19 04:14:32;;;;;;;13.60;10.73;;;;;;;;;;5081999;28;20044;-66
2022/08/19 04:16:59;;;;;;;18.05;12.75;;;;;;;;;;5078611;28;20048;-66
2022/08/19 04:19:26;;;;;;;14.88;12.32;;;;;;;;;;5067576;28;20036;-66
2022/08/19 04:21:53;;;;;;;18.25;13.90;;;;;;;;;;5075874;28;20095;-66
2022/08/19 04:24:20;;;;;;;16.40;12.50;;;;;;;;;;5080026;28;20047;-66
2022/08/19 04:26:46;;;;;;;15.00;12.05;;;;;;;;;;5074529;28;20931;-66
2022/08/19 04:29:16;;;;;;;13.63;11.55;;;;;;;;;;5080620;28;20040;-66
2022/08/19 04:31:44;;;;;;;15.63;11.10;;;;;;;;;;5073601;28;20062;-66
2022/08/19 04:34:11;;;;;;;17.55;12.15;;;;;;;;;;5078774;28;20052;-67
2022/08/19 04:36:39;;;;;;;16.17;12.68;;;;;;;;;;5075775;28;20044;-66
2022/08/19 04:39:07;;;;;;;18.23;13.80;;;;;;;;;;5084685;28;20082;-66
2022/08/19 04:44:30;;;;;;;25.60;14.77;;;;;;;;;;5081579;28;20119;-66
2022/08/19 04:46:56;;;;;;;21.80;14.68;;;;;;;;;;5079348;28;20736;-66
2022/08/19 04:49:23;;;;;;;17.73;13.25;;;;;;;;;;5078389;28;20442;-66
2022/08/19 04:51:51;;;;;;;20.30;13.70;;;;;;;;;;5080129;28;20048;-66
2022/08/19 04:54:20;;;;;;;19.65;14.50;;;;;;;;;;5078189;28;20063;-66
2022/08/19 04:56:46;;;;;;;21.85;15.07;;;;;;;;;;5074374;28;20044;-66
2022/08/19 04:59:14;;;;;;;20.20;14.75;;;;;;;;;;5073644;28;20459;-66
2022/08/19 05:01:40;;;;;;;20.50;14.73;;;;;;;;;;5075507;28;20087;-66
2022/08/19 05:04:07;;;;;;;19.58;14.57;;;;;;;;;;5085460;28;20113;-66
2022/08/19 05:06:34;;;;;;;22.73;16.13;;;;;;;;;;5079338;28;20074;-67
2022/08/19 05:09:01;;;;;;;24.63;15.55;;;;;;;;;;5082929;28;20044;-66
2022/08/19 05:11:28;;;;;;;21.77;15.52;;;;;;;;;;5078763;28;20148;-67
2022/08/19 05:13:55;;;;;;;19.23;14.85;;;;;;;;;;5076888;28;20559;-66
2022/08/19 05:16:22;;;;;;;21.50;15.65;;;;;;;;;;5079938;28;20406;-66
2022/08/19 05:24:18;;;;;;;22.50;15.90;;;;;;;;;;5094532;27;20048;-67
2022/08/19 05:26:46;;;;;;;23.02;16.67;;;;;;;;;;5075599;28;20152;-66
2022/08/19 05:29:13;;;;;;;22.25;15.95;;;;;;;;;;5076090;28;20100;-66
2022/08/19 05:31:40;;;;;;;24.00;17.48;;;;;;;;;;5078364;28;20099;-66
2022/08/19 05:34:06;;;;;;;27.27;17.17;;;;;;;;;;5078204;28;20054;-66
2022/08/19 05:36:35;;;;;;;26.23;17.55;;;;;;;;;;5078794;28;20060;-66
2022/08/19 05:39:03;;;;;;;27.73;17.88;;;;;;;;;;5073985;28;20563;-66
2022/08/19 05:41:30;;;;;;;27.50;17.42;;;;;;;;;;5077287;28;20119;-67
2022/08/19 05:43:57;;;;;;;27.02;19.27;;;;;;;;;;5075941;28;20052;-67
2022/08/19 05:46:23;;;;;;;27.15;17.98;;;;;;;;;;5080294;28;20047;-66
2022/08/19 05:48:49;;;;;;;29.83;17.58;;;;;;;;;;5081380;28;20696;-66
2022/08/19 05:51:16;;;;;;;27.17;19.38;;;;;;;;;;5080651;28;20044;-66
2022/08/19 05:53:45;;;;;;;26.88;18.45;;;;;;;;;;5076083;28;20048;-66
2022/08/19 05:56:15;;;;;;;30.13;19.70;;;;;;;;;;5079477;28;20043;-67
2022/08/19 05:58:41;;;;;;;33.42;19.63;;;;;;;;;;5079658;28;20047;-66
2022/08/19 06:01:12;;;;;;;26.73;19.83;;;;;;;;;;5080111;28;20109;-66
2022/08/19 06:03:39;;;;;;;31.58;20.42;;;;;;;;;;5078061;28;20054;-67
2022/08/19 06:06:07;;;;;;;33.28;20.58;;;;;;;;;;5076367;28;20079;-67
2022/08/19 06:08:34;;;;;;;28.58;18.60;;;;;;;;;;5083411;28;20102;-67
2022/08/19 06:11:12;;;;;;;30.00;20.10;;;;;;;;;;5083574;28;20745;-67
2022/08/19 06:13:38;;;;;;;26.83;19.15;;;;;;;;;;5080078;28;20456;-66
2022/08/19 06:16:05;;;;;;;33.20;21.15;;;;;;;;;;5081864;28;20056;-65
2022/08/19 06:18:33;;;;;;;29.50;20.90;;;;;;;;;;5078566;28;20075;-65
2022/08/19 06:21:03;;;;;;;32.28;21.15;;;;;;;;;;5083650;28;20141;-66
2022/08/19 06:23:30;;;;;;;29.90;20.98;;;;;;;;;;5079795;28;20556;-66
2022/08/19 06:25:56;;;;;;;29.10;21.60;;;;;;;;;;5079580;28;20060;-65
2022/08/19 06:28:23;;;;;;;35.55;22.13;;;;;;;;;;5078066;28;20077;-66
2022/08/19 06:30:51;;;;;;;30.63;21.23;;;;;;;;;;5101718;27;20558;-65
2022/08/19 06:33:17;;;;;;;32.25;21.77;;;;;;;;;;5087611;28;20400;-65
2022/08/19 06:35:43;;;;;;;32.28;22.27;;;;;;;;;;5089801;28;20027;-68
2022/08/19 06:38:09;;;;;;;32.15;22.58;;;;;;;;;;5096612;28;20130;-68
2022/08/19 06:40:37;;;;;;;34.53;23.70;;;;;;;;;;5093022;28;20396;-66
2022/08/19 06:43:04;;;;;;;35.08;22.95;;;;;;;;;;5091593;28;20558;-65
2022/08/19 06:45:30;;;;;;;32.80;23.00;;;;;;;;;;5088897;28;20039;-65
2022/08/19 06:47:56;;;;;;;32.95;22.83;;;;;;;;;;5081818;28;20079;-65
2022/08/19 06:50:23;;;;;;;28.42;21.95;;;;;;;;;;5081629;28;20414;-66
2022/08/19 06:52:49;;;;;;;32.40;22.50;;;;;;;;;;5080663;28;20040;-66
2022/08/19 06:55:16;;;;;;;31.15;22.35;;;;;;;;;;5088017;28;20344;-65
2022/08/19 06:57:45;;;;;;;27.30;21.45;;;;;;;;;;5082026;28;20066;-66
2022/08/19 07:00:13;;;;;;;33.33;22.25;;;;;;;;;;5087926;28;20454;-66
2022/08/19 07:02:41;;;;;;;31.73;23.13;;;;;;;;;;5087629;28;20077;-66
2022/08/19 07:05:07;;;;;;;28.08;22.02;;;;;;;;;;5092576;28;20122;-66
2022/08/19 07:07:34;;;;;;;32.08;23.42;;;;;;;;;;5083798;28;20051;-65
2022/08/19 07:10:00;;;;;;;29.88;22.63;;;;;;;;;;5088416;28;20490;-66
2022/08/19 07:12:27;;;;;;;27.02;21.52;;;;;;;;;;5083347;28;20065;-66
2022/08/19 07:14:54;;;;;;;30.38;22.50;;;;;;;;;;5085415;28;20087;-66
2022/08/19 07:17:20;;;;;;;30.10;22.90;;;;;;;;;;5090199;28;20058;-66
2022/08/19 07:19:46;;;;;;;30.50;23.23;;;;;;;;;;5087876;28;20524;-66
2022/08/19 07:22:13;;;;;;;30.95;22.52;;;;;;;;;;5080257;28;20044;-66
2022/08/19 07:24:39;;;;;;;30.55;24.13;;;;;;;;;;5085506;28;20100;-66
2022/08/19 07:27:06;;;;;;;29.25;22.83;;;;;;;;;;5087167;28;20390;-66
2022/08/19 07:29:33;;;;;;;29.80;21.63;;;;;;;;;;5088885;28;20044;-66
2022/08/19 07:32:01;;;;;;;29.90;23.38;;;;;;;;;;5083817;28;20040;-65
2022/08/19 07:34:28;;;;;;;27.55;23.33;;;;;;;;;;5079433;28;20048;-66
2022/08/19 07:36:55;;;;;;;29.15;22.83;;;;;;;;;;5080068;28;20142;-67
2022/08/19 07:39:25;;;;;;;29.55;24.05;;;;;;;;;;5083727;28;20086;-66
2022/08/19 07:41:51;;;;;;;29.42;24.70;;;;;;;;;;5075225;28;20048;-66
2022/08/19 07:44:19;;;;;;;31.80;23.88;;;;;;;;;;5084320;28;20404;-66
2022/08/19 07:46:48;;;;;;;30.23;23.90;;;;;;;;;;5082016;28;20138;-66
2022/08/19 07:49:20;;;;;;;29.80;24.95;;;;;;;;;;5080751;28;20127;-66
2022/08/19 07:51:48;;;;;;;33.10;25.27;;;;;;;;;;5078026;28;20040;-66
2022/08/19 07:54:14;;;;;;;30.98;25.20;;;;;;;;;;5078492;28;20233;-67
2022/08/19 07:56:40;;;;;;;27.70;22.33;;;;;;;;;;5083877;28;20126;-66
2022/08/19 07:59:08;;;;;;;30.17;24.33;;;;;;;;;;5103085;28;20039;-66
2022/08/19 08:01:35;;;;;;;29.48;24.92;;;;;;;;;;5099223;28;20119;-66
2022/08/19 08:09:33;;;;;;;30.90;25.52;;;;;;;;;;5088685;28;20035;-66
2022/08/19 08:12:01;;;;;;;31.02;26.27;;;;;;;;;;5068074;28;20511;-66
2022/08/19 08:14:29;;;;;;;33.20;27.52;;;;;;;;;;5086020;28;20177;-66
2022/08/19 08:16:55;;;;;;;38.28;28.52;;;;;;;;;;5097114;28;20123;-66
2022/08/19 08:19:23;;;;;;;32.35;28.27;;;;;;;;;;5087508;28;20071;-66
2022/08/19 08:21:49;;;;;;;35.85;27.67;;;;;;;;;;5084330;28;20368;-65
2022/08/19 08:24:16;;;;;;;31.98;27.48;;;;;;;;;;5091333;28;20040;-65
2022/08/19 08:26:43;;;;;;;35.58;29.17;;;;;;;;;;5088084;28;20412;-66
2022/08/19 08:29:12;;;;;;;31.65;27.98;;;;;;;;;;5094995;28;20043;-66
2022/08/19 08:31:39;;;;;;;32.50;29.00;;;;;;;;;;5092407;28;20514;-66
2022/08/19 08:34:05;;;;;;;33.05;28.25;;;;;;;;;;5089500;28;20096;-66
2022/08/19 08:36:33;;;;;;;30.30;26.58;;;;;;;;;;5097438;28;21278;-65
2022/08/19 08:39:00;;;;;;;32.45;28.05;;;;;;;;;;5101404;28;20055;-67
2022/08/19 08:41:31;;;;;;;29.60;26.42;;;;;;;;;;5099839;28;20047;-67
2022/08/19 08:43:57;;;;;;;32.90;27.13;;;;;;;;;;5090072;28;20897;-67
2022/08/19 08:46:30;;;;;;;32.20;28.80;;;;;;;;;;5094799;28;20399;-66
2022/08/19 08:48:59;;;;;;;31.58;28.20;;;;;;;;;;5089774;28;20047;-66
2022/08/19 08:51:29;;;;;;;33.72;28.52;;;;;;;;;;5083989;28;20105;-66
2022/08/19 08:53:56;;;;;;;33.92;29.23;;;;;;;;;;5089147;28;20043;-67
2022/08/19 08:56:23;;;;;;;31.98;27.77;;;;;;;;;;5079851;28;20040;-67
2022/08/19 08:58:56;;;;;;;33.28;28.25;;;;;;;;;;5070221;28;20052;-75
2022/08/19 09:01:23;;;;;;;33.10;27.92;;;;;;;;;;5074173;28;20053;-67
2022/08/19 09:03:49;;;;;;;29.83;26.67;;;;;;;;;;5091712;28;20040;-67
2022/08/19 09:06:23;;;;;;;31.73;26.88;;;;;;;;;;5088190;28;20079;-67
2022/08/19 09:09:03;;;;;;;31.17;26.65;;;;;;;;;;5090499;28;20081;-67
2022/08/19 09:11:29;;;;;;;32.70;27.75;;;;;;;;;;5070833;28;20036;-67
2022/08/19 09:14:03;;;;;;;31.15;27.63;;;;;;;;;;5082937;28;20085;-76
2022/08/19 09:16:30;;;;;;;31.25;27.98;;;;;;;;;;5104685;27;20458;-67
2022/08/19 09:18:59;;;;;;;31.92;27.08;;;;;;;;;;5090793;28;20043;-67
2022/08/19 09:21:27;;;;;;;34.85;28.42;;;;;;;;;;5087306;28;20056;-67
2022/08/19 09:23:53;;;;;;;30.95;25.73;;;;;;;;;;5081435;28;20090;-69
2022/08/19 09:26:21;;;;;;;34.38;27.20;;;;;;;;;;5092700;28;20119;-69
2022/08/19 09:28:48;;;;;;;37.55;27.73;;;;;;;;;;5098487;28;20124;-66
2022/08/19 09:31:15;;;;;;;29.50;26.33;;;;;;;;;;5093226;28;20078;-67
2022/08/19 09:33:43;;;;;;;30.55;23.75;;;;;;;;;;5097536;28;20044;-68
2022/08/19 09:36:10;;;;;;;27.27;23.05;;;;;;;;;;5092816;28;20047;-67
2022/08/19 09:38:40;;;;;;;28.67;23.77;;;;;;;;;;5087894;28;20048;-67
2022/08/19 09:41:08;;;;;;;32.80;27.30;;;;;;;;;;5071582;28;20048;-67
2022/08/19 09:43:36;;;;;;;33.50;28.80;;;;;;;;;;5078970;28;20123;-67
2022/08/19 09:46:06;;;;;;;31.33;25.83;;;;;;;;;;5075322;28;20390;-73
2022/08/19 09:48:33;;;;;;;29.15;24.58;;;;;;;;;;5082841;28;20050;-67
2022/08/19 09:51:05;;;;;;;21.45;18.92;;;;;;;;;;5090631;28;20035;-67
2022/08/19 09:53:31;;;;;;;21.95;18.98;;;;;;;;;;5088395;28;20054;-67
2022/08/19 09:55:57;;;;;;;26.50;19.60;;;;;;;;;;5099779;28;20042;-67
2022/08/19 09:58:27;;;;;;;20.35;16.05;;;;;;;;;;5095003;28;20123;-67
2022/08/19 10:00:54;;;;;;;18.52;15.93;;;;;;;;;;5100702;28;20061;-67
2022/08/19 10:03:21;;;;;;;22.90;17.23;;;;;;;;;;5101883;28;20055;-67
2022/08/19 10:05:48;;;;;;;19.73;16.70;;;;;;;;;;5106108;27;20044;-67
2022/08/19 10:08:15;;;;;;;20.80;16.08;;;;;;;;;;5080488;28;20047;-66
2022/08/19 10:10:43;;;;;;;19.38;14.77;;;;;;;;;;5079832;28;20035;-66
2022/08/19 10:13:10;;;;;;;17.75;14.32;;;;;;;;;;5092594;28;20207;-67
2022/08/19 10:15:39;;;;;;;19.95;14.68;;;;;;;;;;5098889;28;20478;-67
2022/08/19 10:18:05;;;;;;;21.70;16.10;;;;;;;;;;5095529;28;20196;-67
2022/08/19 10:20:32;;;;;;;19.27;14.07;;;;;;;;;;5094821;28;20040;-67
2022/08/19 10:22:59;;;;;;;20.13;13.43;;;;;;;;;;5101312;28;20040;-67
2022/08/19 10:25:26;;;;;;;17.88;13.52;;;;;;;;;;5099376;28;20052;-67
2022/08/19 10:27:53;;;;;;;19.50;14.50;;;;;;;;;;5099700;28;20048;-67
2022/08/19 10:30:20;;;;;;;18.17;13.82;;;;;;;;;;5095099;28;20046;-67
2022/08/19 10:32:46;;;;;;;19.15;15.23;;;;;;;;;;5096384;28;20043;-67
2022/08/19 10:35:14;;;;;;;19.00;13.85;;;;;;;;;;5099613;28;20044;-67
2022/08/19 10:37:40;;;;;;;19.08;15.20;;;;;;;;;;5099880;28;20040;-67
2022/08/19 10:40:08;;;;;;;19.90;15.77;;;;;;;;;;5088753;28;20373;-67
2022/08/19 10:42:35;;;;;;;21.00;15.00;;;;;;;;;;5088896;28;20604;-67
2022/08/19 10:45:02;;;;;;;18.65;13.05;;;;;;;;;;5096260;28;20036;-68
2022/08/19 10:47:28;;;;;;;23.17;13.13;;;;;;;;;;5090093;28;20056;-67
2022/08/19 10:52:42;;;;;;;22.00;15.35;;;;;;;;;;5095386;28;20055;-68
2022/08/19 10:57:53;;;;;;;18.23;13.40;;;;;;;;;;5085701;28;20048;-67
2022/08/19 11:00:22;;;;;;;23.95;14.38;;;;;;;;;;5082021;28;20052;-67
2022/08/19 11:02:48;;;;;;;17.55;13.43;;;;;;;;;;5094255;28;20369;-67
2022/08/19 11:05:15;;;;;;;18.45;13.45;;;;;;;;;;5092116;28;20048;-67
2022/08/19 11:07:42;;;;;;;18.58;13.90;;;;;;;;;;5101364;28;20074;-67
2022/08/19 11:10:09;;;;;;;18.60;13.85;;;;;;;;;;5097836;28;20048;-67
2022/08/19 11:12:39;;;;;;;18.50;12.77;;;;;;;;;;5091386;28;20560;-67
2022/08/19 11:15:07;;;;;;;19.95;12.75;;;;;;;;;;5095488;28;20048;-67
2022/08/19 11:17:33;;;;;;;18.40;13.65;;;;;;;;;;5093370;28;20041;-67
2022/08/19 11:20:03;;;;;;;18.05;13.43;;;;;;;;;;5093342;28;20069;-67
2022/08/19 11:22:29;;;;;;;21.23;14.73;;;;;;;;;;5100105;28;20494;-66
2022/08/19 11:24:55;;;;;;;22.30;12.95;;;;;;;;;;5098136;28;20036;-67
2022/08/19 11:27:22;;;;;;;16.17;12.70;;;;;;;;;;5097842;28;20031;-66
2022/08/19 11:29:48;;;;;;;18.52;11.90;;;;;;;;;;5099741;28;20063;-67
2022/08/19 11:32:15;;;;;;;14.27;10.63;;;;;;;;;;5098863;28;20490;-67
2022/08/19 11:34:41;;;;;;;16.63;10.48;;;;;;;;;;5099589;28;20044;-66
2022/08/19 11:37:08;;;;;;;13.07;10.23;;;;;;;;;;5099998;28;20032;-67
2022/08/19 11:39:36;;;;;;;15.70;8.57;;;;;;;;;;5102410;28;20047;-67
2022/08/19 11:42:54;;;;;;;19.17;9.07;;;;;;;;;;5100399;28;20084;-67
2022/08/19 11:44:49;;;;;;;16.17;10.10;;;;;;;;;;5118497;27;20072;-67
2022/08/19 11:47:15;;;;;;;15.48;10.40;;;;;;;;;;5101136;28;20040;-67
2022/08/19 11:49:42;;;;;;;14.38;9.10;;;;;;;;;;5100056;28;20031;-66
2022/08/19 11:52:08;;;;;;;16.88;10.23;;;;;;;;;;5096708;28;20048;-67
2022/08/19 11:54:35;;;;;;;15.73;9.55;;;;;;;;;;5100067;28;20045;-66
2022/08/19 11:57:03;;;;;;;15.02;9.57;;;;;;;;;;5101988;28;21610;-67
2022/08/19 11:59:29;;;;;;;13.93;9.35;;;;;;;;;;5097616;28;20069;-66
2022/08/19 12:01:55;;;;;;;12.80;8.65;;;;;;;;;;5100008;28;20128;-66
2022/08/19 12:04:22;;;;;;;14.40;8.55;;;;;;;;;;5096659;28;20048;-67
2022/08/19 12:06:49;;;;;;;13.45;7.45;;;;;;;;;;5098341;28;20253;-67
2022/08/19 12:09:17;;;;;;;13.35;7.43;;;;;;;;;;5101548;28;20055;-67
2022/08/19 12:11:43;;;;;;;11.52;7.43;;;;;;;;;;5100560;28;20044;-67
2022/08/19 12:14:11;;;;;;;11.15;7.53;;;;;;;;;;5099873;28;20968;-67
2022/08/19 12:16:37;;;;;;;11.80;7.70;;;;;;;;;;5101099;28;20064;-67
2022/08/19 12:19:04;;;;;;;15.75;7.90;;;;;;;;;;5098669;28;20066;-67
2022/08/19 12:21:32;;;;;;;14.38;8.50;;;;;;;;;;5096624;28;20041;-67
2022/08/19 12:23:59;;;;;;;14.30;8.45;;;;;;;;;;5097725;28;20055;-67
2022/08/19 12:26:26;;;;;;;13.90;7.65;;;;;;;;;;5099648;28;20048;-67
2022/08/19 12:28:53;;;;;;;13.20;7.32;;;;;;;;;;5090144;28;20040;-67
2022/08/19 12:31:19;;;;;;;11.18;8.50;;;;;;;;;;5094761;28;20075;-79
2022/08/19 12:33:46;;;;;;;12.95;7.72;;;;;;;;;;5086967;28;20048;-67
2022/08/19 12:36:14;;;;;;;16.67;9.13;;;;;;;;;;5091316;28;20039;-68
2022/08/19 12:38:41;;;;;;;13.07;8.40;;;;;;;;;;5087069;28;20544;-68
2022/08/19 12:41:09;;;;;;;14.95;7.95;;;;;;;;;;5091697;28;20074;-68
2022/08/19 12:43:36;;;;;;;13.57;8.05;;;;;;;;;;5089123;28;20071;-68
2022/08/19 12:46:04;;;;;;;12.63;7.93;;;;;;;;;;5100158;28;20052;-68
2022/08/19 12:48:30;;;;;;;11.38;7.35;;;;;;;;;;5092328;28;20032;-68
2022/08/19 12:50:57;;;;;;;12.45;7.03;;;;;;;;;;5089616;28;20040;-68
2022/08/19 12:53:23;;;;;;;21.88;13.18;;;;;;;;;;5089458;28;20122;-68
2022/08/19 12:55:56;;;;;;;23.67;15.20;;;;;;;;;;5085601;28;20045;-68
2022/08/19 12:58:23;;;;;;;26.50;18.70;;;;;;;;;;5087691;28;20095;-68
2022/08/19 13:00:49;;;;;;;30.45;21.23;;;;;;;;;;5083458;28;20040;-68
2022/08/19 13:03:15;;;;;;;29.17;22.55;;;;;;;;;;5084861;28;20102;-68
2022/08/19 13:05:41;;;;;;;36.10;23.60;;;;;;;;;;5086287;28;20531;-68
2022/08/19 13:08:08;;;;;;;31.52;20.25;;;;;;;;;;5094033;28;20091;-68
2022/08/19 13:10:36;;;;;;;14.75;8.07;;;;;;;;;;5090673;28;20054;-68
2022/08/19 13:13:04;;;;;;;13.00;6.88;;;;;;;;;;5091455;28;20482;-69
2022/08/19 13:15:33;;;;;;;14.30;7.53;;;;;;;;;;5093524;28;20039;-68
2022/08/19 13:17:59;;;;;;;10.75;6.43;;;;;;;;;;5093276;28;20054;-68
2022/08/19 13:20:26;;;;;;;11.20;7.43;;;;;;;;;;5095112;28;20040;-68
2022/08/19 13:22:52;;;;;;;14.88;7.65;;;;;;;;;;5093359;28;20088;-68
2022/08/19 13:25:19;;;;;;;11.70;7.40;;;;;;;;;;5084059;28;20102;-68
2022/08/19 13:27:45;;;;;;;12.75;8.45;;;;;;;;;;5089476;28;20108;-68
2022/08/19 13:33:11;;;;;;;18.65;13.20;;;;;;;;;;5088171;28;20043;-68
2022/08/19 13:35:38;;;;;;;31.33;20.90;;;;;;;;;;5087836;28;20478;-69
2022/08/19 13:38:04;;;;;;;27.05;20.48;;;;;;;;;;5093251;28;20047;-68
2022/08/19 13:40:33;;;;;;;21.75;18.98;;;;;;;;;;5096059;28;20050;-68
2022/08/19 13:42:59;;;;;;;27.73;19.27;;;;;;;;;;5094508;28;20048;-68
2022/08/19 13:45:26;;;;;;;29.40;20.55;;;;;;;;;;5093593;28;20032;-68
2022/08/19 13:47:53;;;;;;;27.65;20.27;;;;;;;;;;5101759;28;20044;-68
2022/08/19 13:50:21;;;;;;;26.83;20.13;;;;;;;;;;5100053;28;20131;-69
2022/08/19 13:52:48;;;;;;;27.02;18.73;;;;;;;;;;5076692;28;20939;-68
2022/08/19 13:55:15;;;;;;;31.95;22.45;;;;;;;;;;5093681;28;21348;-69
2022/08/19 13:57:42;;;;;;;30.88;22.52;;;;;;;;;;5088954;28;20123;-69
2022/08/19 14:00:10;;;;;;;29.10;21.15;;;;;;;;;;5087416;28;20522;-68
2022/08/19 14:02:37;;;;;;;22.50;18.67;;;;;;;;;;5087265;28;20048;-68
2022/08/19 14:05:04;;;;;;;26.55;18.77;;;;;;;;;;5091057;28;20039;-68
2022/08/19 14:07:31;;;;;;;22.95;18.60;;;;;;;;;;5088235;28;20390;-68
2022/08/19 14:09:57;;;;;;;23.33;18.20;;;;;;;;;;5088011;28;20043;-68
2022/08/19 14:12:24;;;;;;;26.33;18.92;;;;;;;;;;5086577;28;20111;-68
2022/08/19 14:14:50;;;;;;;25.50;17.67;;;;;;;;;;5088960;28;20058;-68
2022/08/19 14:17:16;;;;;;;24.38;18.45;;;;;;;;;;5088780;28;20444;-68
2022/08/19 14:19:43;;;;;;;23.75;18.02;;;;;;;;;;5087239;28;20048;-69
2022/08/19 14:22:09;;;;;;;24.25;16.77;;;;;;;;;;5083499;28;20496;-68
2022/08/19 14:24:39;;;;;;;21.23;16.08;;;;;;;;;;5081083;28;20399;-68
2022/08/19 14:27:06;;;;;;;19.85;17.05;;;;;;;;;;5088520;28;20079;-69
2022/08/19 14:29:32;;;;;;;21.05;15.98;;;;;;;;;;5081884;28;20040;-68
2022/08/19 14:31:58;;;;;;;17.60;13.75;;;;;;;;;;5088448;28;20040;-68
2022/08/19 14:34:25;;;;;;;20.17;12.57;;;;;;;;;;5092107;28;20424;-68
2022/08/19 14:36:52;;;;;;;16.45;11.27;;;;;;;;;;5090320;28;20044;-68
2022/08/19 14:39:18;;;;;;;14.63;10.85;;;;;;;;;;5089558;28;20230;-69
2022/08/19 14:41:45;;;;;;;11.45;7.38;;;;;;;;;;5092718;28;20042;-69